Latest Weather Observations for Gladstone Airport

IDQ60801

Issued at 3:12 pm EST Monday 30 March 2020 (issued every 10 minutes, with the page automatically refreshed every 10 minutes)

About weather observations | Map of weather stations | Latest weather observations for QLD | Other Formats
Station Details ID: 039326 Name: GLADSTONE AIRPORT Lat: -23.87 Lon: 151.22 Height: 16.6 m
Data from the previous 72 hours. | See also: Recent months at Gladstone Airport
Date/Time
EST
Temp
°C
App
Temp
°C
Dew
Point
°C
Rel
Hum
%
Delta-T
°C
Wind Press
QNH
hPa
Press
MSL
hPa
Rain since
9am
mm
Dir  Spd
km/h
Gust
km/h
Spd
kts
Gust
kts
30/03:00pm 28.1 27.1 17.9 54 6.5 ENE 20 28 11 15 1013.9 1013.8 0.0
30/02:30pm 28.2 27.2 18.0 54 6.5 ENE 20 26 11 14 1013.9 1013.8 0.0
30/02:00pm 28.6 26.6 16.5 48 7.5 ENE 22 28 12 15 1014.1 1014.0 0.0
30/01:30pm 29.0 27.3 16.2 46 7.9 ENE 20 30 11 16 1014.2 1014.1 0.0
30/01:00pm 29.0 26.5 14.0 39 9.0 E 20 32 11 17 1014.6 1014.5 0.0
30/12:30pm 28.7 26.5 14.5 42 8.6 E 19 26 10 14 1014.8 1014.7 0.0
30/12:00pm 28.9 27.5 17.1 49 7.4 E 20 28 11 15 1015.2 1015.1 0.0
30/11:30am 28.5 26.1 15.4 45 8.0 E 22 32 12 17 1015.7 1015.6 0.0
30/11:00am 28.7 25.8 14.1 40 8.8 ESE 22 28 12 15 1016.1 1016.0 0.0
30/10:30am 28.1 27.2 18.2 55 6.3 E 20 28 11 15 1016.2 1016.1 0.0
30/10:00am 27.5 27.3 18.5 58 5.7 ESE 17 22 9 12 1016.4 1016.3 0.0
30/09:30am 27.5 29.2 20.1 64 4.8 SE 11 17 6 9 1016.2 1016.1 0.0
30/09:00am 26.1 26.7 19.5 67 4.3 SE 15 22 8 12 1016.3 1016.2 0.0
30/08:30am 25.7 27.0 19.3 67 4.1 SSE 11 15 6 8 1016.3 1016.2 0.0
30/08:00am 24.1 25.5 19.6 76 2.9 SW 11 15 6 8 1016.4 1016.3 0.0
30/07:30am 22.6 24.2 19.2 81 2.2 SW 9 13 5 7 1016.1 1016.0 0.0
30/07:00am 21.5 23.4 18.9 85 1.6 SSW 7 13 4 7 1015.7 1015.6 0.0
30/06:30am 20.8 22.6 18.7 88 1.3 SW 7 9 4 5 1015.5 1015.4 0.0
30/06:00am 20.6 22.3 18.5 88 1.3 SSW 7 9 4 5 1015.1 1015.0 0.0
30/05:30am 20.6 22.4 18.7 89 1.2 SSW 7 7 4 4 1014.9 1014.8 0.0
30/05:00am 20.7 22.5 18.8 89 1.2 SSW 7 9 4 5 1014.9 1014.8 0.0
30/04:30am 20.8 23.9 18.7 88 1.3 CALM 0 0 0 0 1014.9 1014.8 0.0
30/04:00am 20.9 22.7 18.8 88 1.3 SSW 7 9 4 5 1014.7 1014.6 0.0
30/03:30am 21.1 23.0 18.9 87 1.4 SW 7 9 4 5 1015.0 1014.9 0.0
30/03:00am 21.4 23.4 18.8 85 1.6 SW 6 7 3 4 1015.3 1015.2 0.0
30/02:30am 21.6 23.6 18.8 84 1.8 SW 6 7 3 4 1015.7 1015.6 0.0
30/02:00am 22.5 24.6 19.3 82 2.0 S 7 11 4 6 1015.8 1015.7 0.0
30/01:30am 23.0 24.7 19.4 80 2.3 SE 9 15 5 8 1015.8 1015.7 0.0
30/01:00am 23.1 25.3 19.5 80 2.3 SSE 7 9 4 5 1016.4 1016.3 0.0
30/12:30am 23.2 24.9 19.4 79 2.4 SSE 9 13 5 7 1016.6 1016.5 0.0
30/12:00am 23.3 25.1 19.5 79 2.4 SSE 9 13 5 7 1016.7 1016.6 0.0
 
Date/Time
EST
Temp
°C
App
Temp
°C
Dew
Point
°C
Rel
Hum
%
Delta-T
°C
Wind Press
QNH
hPa
Press
MSL
hPa
Rain since
9am
mm
Dir  Spd
km/h
Gust
km/h
Spd
kts
Gust
kts
29/11:30pm 23.1 25.3 19.3 79 2.4 SSE 6 9 3 5 1016.9 1016.8 0.0
29/11:00pm 23.4 25.6 19.3 78 2.6 SSE 6 9 3 5 1017.0 1016.9 0.0
29/10:30pm 23.9 26.0 19.4 76 2.9 SE 7 9 4 5 1017.0 1016.9 0.0
29/10:00pm 24.0 25.4 19.5 76 2.9 SE 11 17 6 9 1017.1 1017.0 0.0
29/09:30pm 24.2 26.0 19.5 75 3.0 SE 9 17 5 9 1017.0 1016.9 0.0
29/09:00pm 24.7 26.6 19.8 74 3.2 SE 9 13 5 7 1016.6 1016.5 0.0
29/08:30pm 25.0 26.1 19.6 72 3.5 ESE 13 17 7 9 1016.4 1016.3 0.0
29/08:00pm 25.3 26.2 19.2 69 3.9 ESE 13 19 7 10 1016.5 1016.4 0.0
29/07:30pm 25.5 25.6 19.2 68 4.0 ESE 17 22 9 12 1015.9 1015.8 0.0
29/07:00pm 25.9 25.7 19.3 67 4.2 ESE 19 24 10 13 1015.6 1015.5 0.0
29/06:30pm 26.0 26.1 19.2 66 4.4 E 17 24 9 13 1015.5 1015.4 0.0
29/06:00pm 26.1 25.6 19.2 65 4.4 E 20 28 11 15 1015.3 1015.2 0.0
29/05:30pm 26.5 25.6 19.1 64 4.8 ESE 22 30 12 16 1015.1 1015.0 0.0
29/05:00pm 26.9 26.0 19.0 62 5.1 E 22 28 12 15 1014.7 1014.6 0.0
29/04:30pm 27.9 26.4 18.6 57 6.0 ESE 24 32 13 17 1014.4 1014.3 0.0
29/04:00pm 28.0 25.9 18.1 55 6.3 E 26 33 14 18 1014.5 1014.4 0.0
29/03:30pm 28.0 26.2 18.7 57 6.0 E 26 35 14 19 1014.7 1014.6 0.0
29/03:00pm 28.2 26.6 18.3 55 6.3 ESE 24 32 13 17 1014.7 1014.6 0.0
29/02:30pm 28.6 26.9 18.1 53 6.7 E 24 37 13 20 1014.9 1014.8 0.0
29/02:00pm 28.4 26.6 17.9 53 6.7 E 24 32 13 17 1015.0 1014.9 0.0
29/01:30pm 28.6 26.9 18.1 53 6.7 ESE 24 35 13 19 1015.2 1015.1 0.0
29/01:00pm 28.3 26.2 17.2 51 7.0 E 24 32 13 17 1015.3 1015.2 0.0
29/12:30pm 29.2 27.7 18.6 52 6.8 ESE 24 35 13 19 1015.4 1015.3 0.0
29/12:00pm 28.1 26.6 18.5 56 6.1 E 24 32 13 17 1015.9 1015.8 0.0
29/11:40am 28.8 27.4 18.9 55 6.4 E 24 32 13 17 1016.2 1016.1 0.0
29/11:30am 27.7 26.4 19.0 59 5.6 E 24 33 13 18 1016.3 1016.2 0.0
29/11:22am 28.3 27.2 19.5 59 5.7 E 24 35 13 19 1016.3 1016.2 0.0
29/11:00am 28.2 26.8 18.9 57 6.0 E 24 35 13 19 1016.5 1016.4 0.0
29/10:30am 27.9 26.5 18.9 58 5.8 ESE 24 33 13 18 1016.7 1016.6 0.0
29/10:00am 27.9 27.5 18.9 58 5.8 ESE 19 32 10 17 1016.8 1016.7 0.0
29/09:30am 26.4 26.3 18.8 63 4.9 SE 17 26 9 14 1017.1 1017.0 0.0
29/09:00am 25.8 25.8 19.0 66 4.3 SE 17 24 9 13 1017.0 1016.9 0.0
29/08:30am 25.8 25.9 19.2 67 4.2 SE 17 28 9 15 1016.9 1016.8 0.0
29/08:00am 24.7 25.5 19.1 71 3.6 SE 13 20 7 11 1016.7 1016.6 0.0
29/07:30am 23.8 24.4 18.7 73 3.2 SE 13 20 7 11 1016.4 1016.3 0.0
29/07:00am 22.8 23.5 18.8 78 2.5 SSE 13 19 7 10 1016.0 1015.9 0.0
29/06:30am 22.0 22.1 18.4 80 2.3 SSE 15 20 8 11 1015.8 1015.7 0.0
29/06:00am 22.0 22.5 18.4 80 2.3 SE 13 19 7 10 1015.5 1015.4 0.0
29/05:30am 21.9 22.8 18.3 80 2.3 SSE 11 19 6 10 1015.2 1015.1 0.0
29/05:00am 22.1 23.0 18.5 80 2.3 SSE 11 15 6 8 1015.1 1015.0 0.0
29/04:30am 22.0 22.8 18.2 79 2.4 SSE 11 17 6 9 1015.0 1014.9 0.0
29/04:00am 22.1 22.6 18.3 79 2.4 SE 13 20 7 11 1014.6 1014.5 0.0
29/03:30am 22.2 22.7 18.4 79 2.4 SSE 13 19 7 10 1014.4 1014.3 0.0
29/03:00am 22.3 23.6 18.5 79 2.4 SE 9 15 5 8 1014.9 1014.8 0.0
29/02:30am 22.4 23.0 18.6 79 2.4 SSE 13 19 7 10 1015.2 1015.1 0.0
29/02:00am 22.5 23.4 18.5 78 2.5 SSE 11 17 6 9 1015.7 1015.6 0.0
29/01:30am 22.3 24.1 18.7 80 2.3 S 7 13 4 7 1016.0 1015.9 0.0
29/01:00am 22.0 23.7 18.4 80 2.3 S 7 11 4 6 1016.1 1016.0 0.0
29/12:30am 22.2 23.9 18.4 79 2.4 S 7 9 4 5 1016.2 1016.1 0.0
29/12:00am 22.6 23.9 18.4 77 2.6 SSE 9 13 5 7 1016.4 1016.3 0.0
 
Date/Time
EST
Temp
°C
App
Temp
°C
Dew
Point
°C
Rel
Hum
%
Delta-T
°C
Wind Press
QNH
hPa
Press
MSL
hPa
Rain since
9am
mm
Dir  Spd
km/h
Gust
km/h
Spd
kts
Gust
kts
28/11:30pm 22.4 23.7 18.4 78 2.5 S 9 13 5 7 1016.7 1016.6 0.0
28/11:00pm 22.9 24.2 18.4 76 2.8 SSE 9 17 5 9 1017.0 1016.9 0.0
28/10:30pm 23.1 24.0 18.4 75 3.0 SSE 11 15 6 8 1017.0 1016.9 0.0
28/10:00pm 23.2 23.7 18.3 74 3.1 SSE 13 17 7 9 1017.3 1017.2 0.0
28/09:30pm 23.4 24.2 18.1 72 3.3 SSE 11 19 6 10 1017.3 1017.2 0.0
28/09:00pm 23.7 24.5 18.1 71 3.5 SSE 11 19 6 10 1017.0 1016.9 0.0
28/08:30pm 24.0 24.5 18.4 71 3.5 SE 13 24 7 13 1016.8 1016.7 0.0
28/08:00pm 24.4 24.5 18.3 69 3.8 SE 15 22 8 12 1016.5 1016.4 0.0
28/07:30pm 24.7 25.2 18.4 68 4.0 SE 13 17 7 9 1016.1 1016.0 0.0
28/07:00pm 24.9 25.9 18.6 68 4.0 ESE 11 15 6 8 1015.7 1015.6 0.0
28/06:30pm 25.4 24.7 18.3 65 4.5 SE 19 24 10 13 1015.7 1015.6 0.0
28/06:00pm 25.3 24.9 19.0 68 4.0 ESE 19 28 10 15 1015.3 1015.2 0.0
28/05:30pm 25.8 23.4 19.2 67 4.2 ESE 30 41 16 22 1015.3 1015.2 0.0
28/05:00pm 26.2 24.3 19.3 65 4.4 ESE 28 37 15 20 1015.0 1014.9 0.0
28/04:30pm 26.7 24.1 19.8 66 4.5 E 33 43 18 23 1014.7 1014.6 0.0
28/04:00pm 27.5 24.7 19.0 59 5.5 ESE 32 43 17 23 1014.6 1014.5 0.0
28/03:30pm 27.5 25.2 20.1 64 4.8 ESE 32 43 17 23 1014.7 1014.6 0.0
28/03:00pm 28.5 26.2 19.4 57 5.9 E 30 43 16 23 1014.6 1014.5 0.0
28/02:30pm 28.6 26.4 18.7 55 6.4 ESE 28 39 15 21 1014.8 1014.7 0.0
28/02:00pm 29.1 26.9 18.8 53 6.6 ESE 28 35 15 19 1014.9 1014.8 0.0
28/01:30pm 28.5 25.6 18.9 56 6.2 ESE 32 41 17 22 1015.2 1015.1 0.0
28/01:00pm 29.4 27.8 19.1 54 6.7 ESE 26 39 14 21 1015.3 1015.2 0.0
28/12:30pm 29.4 27.2 18.8 53 6.8 ESE 28 35 15 19 1015.9 1015.8 0.0
28/12:00pm 28.5 27.3 18.3 54 6.5 SE 22 37 12 20 1016.4 1016.3 0.0
28/11:30am 27.7 26.4 18.1 56 6.1 SE 22 32 12 17 1016.8 1016.7 0.0
28/11:00am 28.4 27.1 19.1 57 6.0 ESE 24 35 13 19 1017.1 1017.0 0.0
28/10:30am 26.9 25.7 18.5 60 5.4 SE 22 35 12 19 1017.4 1017.3 0.0
28/10:00am 27.0 25.9 18.6 60 5.4 SE 22 30 12 16 1017.6 1017.5 0.0
28/09:30am 26.1 25.5 18.5 63 4.8 SE 19 26 10 14 1017.6 1017.5 0.0
28/09:00am 25.6 24.4 18.3 64 4.6 SE 22 33 12 18 1017.4 1017.3 0.0
28/08:30am 25.1 24.5 18.5 67 4.2 SE 19 30 10 16 1017.3 1017.2 0.0
28/08:00am 23.9 23.2 18.3 71 3.5 SSE 19 28 10 15 1016.9 1016.8 0.0
28/07:30am 22.5 22.0 17.8 75 2.9 SE 17 28 9 15 1016.9 1016.8 0.0
28/07:00am 22.1 21.6 17.7 76 2.7 SE 17 24 9 13 1016.6 1016.5 0.0
28/06:30am 22.2 22.0 17.6 75 2.8 SSE 15 24 8 13 1016.2 1016.1 0.0
28/06:00am 22.3 22.5 17.7 75 2.8 SSE 13 24 7 13 1016.1 1016.0 0.0
28/05:30am 22.1 22.2 17.5 75 2.8 SSE 13 20 7 11 1015.9 1015.8 0.0
28/05:00am 21.8 21.9 17.4 76 2.7 S 13 19 7 10 1015.8 1015.7 0.0
28/04:30am 21.7 22.0 17.1 75 2.8 SSE 11 19 6 10 1015.7 1015.6 0.0
28/04:00am 21.6 21.5 17.0 75 2.8 SSE 13 17 7 9 1015.7 1015.6 0.0
28/03:30am 21.6 21.5 17.0 75 2.8 SSE 13 19 7 10 1015.8 1015.7 0.0
28/03:00am 21.7 22.0 16.9 74 2.9 SSE 11 19 6 10 1016.0 1015.9 0.0
28/02:30am 21.9 22.1 16.8 73 3.1 SSE 11 19 6 10 1016.2 1016.1 0.0
28/02:00am 22.0 22.2 16.7 72 3.2 SSE 11 17 6 9 1016.4 1016.3 0.0
28/01:30am 22.1 21.9 16.6 71 3.3 SSE 13 17 7 9 1016.7 1016.6 0.0
28/01:00am 22.1 22.2 16.4 70 3.5 SSE 11 17 6 9 1017.1 1017.0 0.0
28/12:30am 22.3 21.9 16.3 69 3.6 SSE 13 17 7 9 1017.4 1017.3 0.0
28/12:00am 22.6 22.7 16.4 68 3.8 SE 11 17 6 9 1017.7 1017.6 0.0
 
Date/Time
EST
Temp
°C
App
Temp
°C
Dew
Point
°C
Rel
Hum
%
Delta-T
°C
Wind Press
QNH
hPa
Press
MSL
hPa
Rain since
9am
mm
Dir  Spd
km/h
Gust
km/h
Spd
kts
Gust
kts
27/11:30pm 22.8 22.6 16.6 68 3.8 SSE 13 19 7 10 1017.9 1017.8 0.0
27/11:00pm 23.1 22.6 16.9 68 3.8 SSE 15 20 8 11 1018.1 1018.0 0.0
27/10:30pm 23.3 23.7 17.3 69 3.7 SSE 11 19 6 10 1018.2 1018.1 0.0
27/10:00pm 23.5 24.4 17.5 69 3.7 SSE 9 13 5 7 1018.2 1018.1 0.0
27/09:30pm 24.3 23.7 17.5 66 4.2 SE 17 24 9 13 1018.2 1018.1 0.0
27/09:00pm 24.4 23.6 17.1 63 4.5 SE 17 26 9 14 1018.1 1018.0 0.0
27/08:30pm 24.8 23.5 16.8 61 4.9 SE 19 28 10 15 1017.9 1017.8 0.0
27/08:00pm 25.1 24.0 16.3 58 5.4 SE 17 28 9 15 1017.6 1017.5 0.0
27/07:30pm 25.6 22.6 15.9 55 5.9 ESE 26 39 14 21 1017.3 1017.2 0.0
27/07:00pm 25.4 24.1 18.1 64 4.6 ESE 22 35 12 19 1017.0 1016.9 0.0
27/06:30pm 25.7 24.6 18.6 65 4.5 ESE 22 28 12 15 1016.5 1016.4 0.0
27/06:00pm 26.2 23.8 18.3 61 5.0 ESE 28 35 15 19 1016.2 1016.1 0.0
27/05:30pm 26.6 24.5 19.0 63 4.9 E 28 35 15 19 1015.9 1015.8 0.0
27/05:00pm 27.0 24.8 18.6 60 5.4 E 28 37 15 20 1015.8 1015.7 0.0
27/04:30pm 27.6 24.8 18.3 57 5.9 E 30 37 16 20 1015.6 1015.5 0.0
27/04:00pm 28.7 25.4 17.9 52 6.9 ESE 32 43 17 23 1015.4 1015.3 0.0
27/03:30pm 28.6 24.9 17.5 51 7.0 E 33 41 18 22 1015.6 1015.5 0.0

Other formats

Comma delimited format used in spreadsheet applications
http://www.bom.gov.au/fwo/IDQ60801/IDQ60801.94381.axf

JavaScript Object Notation format (JSON) in row-major order
http://www.bom.gov.au/fwo/IDQ60801/IDQ60801.94381.json

Data quality

Most of these data are generated automatically and are frequently updated. Quality checks on data are not normally performed. It is possible for incorrect values to appear. Refer to information at About Latest Weather Observations and please check the disclaimer before using these data.